KBLH/BLH METAR and TAF weather

Enter ICAO airport designator
Station Type Date Time Source
KBLH METAR 2021/09/19 13:52 UTC NOAA

KBLH 191352Z AUTO 30003KT 10SM CLR 23/05 A2985 RMK AO2 SLP102 T02280050


Station Type Date Time Source
KBLH Decoded METAR 2021/09/19 13:52 UTC NOAA

BLYTHE AIRPORT, CA, United States (KBLH) 33-37N 114-43W 119M
Sep 19, 2021 - 09:52 AM EDT / 2021.09.19 1352 UTC
Wind: from the WNW (300 degrees) at 3 MPH (3 KT):0
Visibility: 10 mile(s):0
Sky conditions: clear
Temperature: 73.0 F (22.8 C)
Dew Point: 41.0 F (5.0 C)
Relative Humidity: 31%
Pressure (altimeter): 29.85 in. Hg (1010 hPa)
ob: KBLH 191352Z AUTO 30003KT 10SM CLR 23/05 A2985 RMK AO2 SLP102 T02280050
cycle: 14

Station Type Date Time Source
KBLH TAF 2021/09/20 06:24 UTC NOAA

TAF KBLH 200521Z 2006/2106 VRB06KT P6SM SKC
FM201200 35006KT P6SM SKC
FM201800 VRB06KT P6SM SKC

Example: see airport list